createdAt,value
2022-12-01T00:01:24.388Z,3.80
2022-12-01T00:03:51.467Z,3.80
2022-12-01T00:06:21.491Z,3.80
2022-12-01T00:09:12.981Z,3.80
2022-12-01T00:11:42.367Z,3.70
2022-12-01T00:14:09.445Z,3.70
2022-12-01T00:16:36.607Z,3.60
2022-12-01T00:19:03.751Z,3.60
2022-12-01T00:21:30.808Z,3.50
2022-12-01T00:23:58.359Z,3.60
2022-12-01T00:26:27.054Z,3.50
2022-12-01T00:28:57.400Z,3.50
2022-12-01T00:31:25.304Z,3.40
2022-12-01T00:33:52.848Z,3.40
2022-12-01T00:36:20.357Z,3.40
2022-12-01T00:38:47.991Z,3.40
2022-12-01T00:41:15.188Z,3.30
2022-12-01T00:43:42.382Z,3.30
2022-12-01T00:46:09.756Z,3.30
2022-12-01T00:48:37.299Z,3.30
2022-12-01T00:51:04.731Z,3.30
2022-12-01T00:53:32.469Z,3.30
2022-12-01T00:55:59.790Z,3.20
2022-12-01T00:58:26.823Z,3.20
2022-12-01T01:00:59.949Z,3.10
2022-12-01T01:03:28.802Z,3.20
2022-12-01T01:05:55.869Z,3.20
2022-12-01T01:08:22.941Z,3.10
2022-12-01T01:10:50.039Z,3.10
2022-12-01T01:13:18.957Z,3.10
2022-12-01T01:15:46.180Z,3.10
2022-12-01T01:18:13.300Z,3.10
2022-12-01T01:20:40.607Z,3.10
2022-12-01T01:23:07.699Z,3.10
2022-12-01T01:25:34.742Z,3.10
2022-12-01T01:28:01.984Z,3.10
2022-12-01T01:30:29.126Z,3.10
2022-12-01T01:32:56.198Z,3.10
2022-12-01T01:35:23.309Z,3.10
2022-12-01T01:37:50.998Z,3.10
2022-12-01T01:40:18.831Z,3.10
2022-12-01T01:42:46.110Z,3.10
2022-12-01T01:45:29.705Z,3.00
2022-12-01T01:48:00.047Z,3.10
2022-12-01T01:50:29.214Z,3.10
2022-12-01T01:53:02.985Z,3.10
2022-12-01T01:55:32.158Z,3.00
2022-12-01T01:58:00.085Z,3.00
2022-12-01T02:00:27.485Z,3.00
2022-12-01T02:02:57.234Z,3.00
2022-12-01T02:05:29.383Z,3.00
2022-12-01T02:07:58.689Z,3.10
2022-12-01T02:10:58.720Z,3.10
2022-12-01T02:13:43.329Z,3.00
2022-12-01T02:16:26.145Z,3.00
2022-12-01T02:19:14.183Z,3.00
2022-12-01T02:22:01.911Z,3.00
2022-12-01T02:25:01.789Z,3.00
2022-12-01T02:27:54.482Z,3.00
2022-12-01T02:30:45.097Z,3.00
2022-12-01T02:33:23.379Z,3.00
2022-12-01T02:36:17.808Z,3.00
2022-12-01T02:39:12.182Z,3.00
2022-12-01T02:41:52.640Z,3.00
2022-12-01T02:44:38.958Z,3.00
2022-12-01T02:47:14.849Z,3.00
2022-12-01T02:49:49.639Z,3.00
2022-12-01T02:52:18.905Z,3.00
2022-12-01T02:54:48.785Z,3.00
2022-12-01T02:57:17.164Z,3.00
2022-12-01T02:59:51.256Z,3.00
2022-12-01T03:02:28.686Z,3.00
2022-12-01T03:05:05.384Z,3.00
2022-12-01T03:08:01.742Z,3.00
2022-12-01T03:10:47.213Z,2.90
2022-12-01T03:13:49.416Z,2.90
2022-12-01T03:16:33.725Z,2.80
2022-12-01T03:19:14.632Z,2.80
2022-12-01T03:22:11.611Z,2.80
2022-12-01T03:24:41.284Z,2.70
2022-12-01T03:27:11.503Z,2.70
2022-12-01T03:29:48.396Z,2.70
2022-12-01T03:32:23.735Z,2.60
2022-12-01T03:35:04.476Z,2.60
2022-12-01T03:37:45.801Z,2.60
2022-12-01T03:40:19.426Z,2.60
2022-12-01T03:42:59.468Z,2.60
2022-12-01T03:46:12.509Z,2.50
2022-12-01T03:48:41.475Z,2.50
2022-12-01T03:51:22.197Z,2.50
2022-12-01T03:54:27.448Z,2.50
2022-12-01T03:57:00.432Z,2.50
2022-12-01T03:59:30.001Z,2.50
2022-12-01T04:01:58.304Z,2.40
2022-12-01T04:04:25.393Z,2.40
2022-12-01T04:06:53.774Z,2.40
2022-12-01T04:09:20.798Z,2.40
2022-12-01T04:12:06.695Z,2.40
2022-12-01T04:14:33.786Z,2.30
2022-12-01T04:17:00.918Z,2.30
2022-12-01T04:19:27.991Z,2.30
2022-12-01T04:21:55.051Z,2.30
2022-12-01T04:24:22.103Z,2.30
2022-12-01T04:26:49.162Z,2.30
2022-12-01T04:29:16.341Z,2.20
2022-12-01T04:31:43.490Z,2.20
2022-12-01T04:34:11.175Z,2.20
2022-12-01T04:36:38.573Z,2.30
2022-12-01T04:39:05.846Z,2.20
2022-12-01T04:41:32.891Z,2.30
2022-12-01T04:43:59.962Z,2.30
2022-12-01T04:46:27.132Z,2.30
2022-12-01T04:48:54.210Z,2.30
2022-12-01T04:51:22.423Z,2.30
2022-12-01T04:53:50.704Z,2.30
2022-12-01T04:56:18.251Z,2.30
2022-12-01T04:58:45.484Z,2.30
2022-12-01T05:01:15.229Z,2.30
2022-12-01T05:03:46.493Z,2.30
2022-12-01T05:06:17.735Z,2.30
2022-12-01T05:08:44.843Z,2.30
2022-12-01T05:11:13.629Z,2.30
2022-12-01T05:13:43.828Z,2.20
2022-12-01T05:16:24.290Z,2.30
2022-12-01T05:19:14.786Z,2.30
2022-12-01T05:21:43.570Z,2.30
2022-12-01T05:24:12.722Z,2.20
2022-12-01T05:26:42.351Z,2.30
2022-12-01T05:29:10.157Z,2.30
2022-12-01T05:31:37.384Z,2.30
2022-12-01T05:34:04.539Z,2.30
2022-12-01T05:36:32.603Z,2.30
2022-12-01T05:38:59.693Z,2.30
2022-12-01T05:41:26.744Z,2.30
2022-12-01T05:43:53.765Z,2.30
2022-12-01T05:46:22.045Z,2.30
2022-12-01T05:48:49.226Z,2.30
2022-12-01T05:51:17.968Z,2.30
2022-12-01T05:53:45.367Z,2.40
2022-12-01T05:56:12.897Z,2.40
2022-12-01T05:58:39.988Z,2.40
2022-12-01T06:01:07.164Z,2.40
2022-12-01T06:03:34.331Z,2.40
2022-12-01T06:06:01.757Z,2.40
2022-12-01T06:08:28.861Z,2.40
2022-12-01T06:10:55.961Z,2.40
2022-12-01T06:13:23.217Z,2.50
2022-12-01T06:16:16.578Z,2.50
2022-12-01T06:18:43.704Z,2.60
2022-12-01T06:21:10.738Z,2.60
2022-12-01T06:23:38.622Z,2.60
2022-12-01T06:26:05.824Z,2.60
2022-12-01T06:28:32.939Z,2.60
2022-12-01T06:31:03.463Z,2.60
2022-12-01T06:33:31.978Z,2.60
2022-12-01T06:36:00.956Z,2.60
2022-12-01T06:38:33.048Z,2.60
2022-12-01T06:41:01.331Z,2.60
2022-12-01T06:43:28.814Z,2.70
2022-12-01T06:46:01.157Z,2.70
2022-12-01T06:48:30.955Z,2.70
2022-12-01T06:51:00.146Z,2.70
2022-12-01T06:53:28.657Z,2.70
2022-12-01T06:56:02.046Z,2.70
2022-12-01T06:58:29.548Z,2.70
2022-12-01T07:00:58.794Z,2.70
2022-12-01T07:03:26.498Z,2.70
2022-12-01T07:05:59.924Z,2.70
2022-12-01T07:08:28.917Z,2.70
2022-12-01T07:11:04.986Z,2.80
2022-12-01T07:13:33.931Z,2.80
2022-12-01T07:16:06.054Z,2.80
2022-12-01T07:18:34.781Z,2.90
2022-12-01T07:21:04.988Z,2.90
2022-12-01T07:23:32.195Z,2.90
2022-12-01T07:26:23.101Z,2.90
2022-12-01T07:28:50.172Z,3.00
2022-12-01T07:31:19.409Z,2.90
2022-12-01T07:33:49.242Z,3.00
2022-12-01T07:36:16.479Z,3.00
2022-12-01T07:38:43.650Z,3.00
2022-12-01T07:41:19.470Z,3.00
2022-12-01T07:43:46.752Z,3.00
2022-12-01T07:46:23.163Z,3.00
2022-12-01T07:48:52.573Z,3.10
2022-12-01T07:51:21.405Z,3.10
2022-12-01T07:53:50.842Z,3.10
2022-12-01T07:56:19.530Z,3.10
2022-12-01T07:58:46.748Z,3.10
2022-12-01T08:01:17.731Z,3.20
2022-12-01T08:03:45.313Z,3.20
2022-12-01T08:06:13.047Z,3.20
2022-12-01T08:08:41.436Z,3.20
2022-12-01T08:11:13.679Z,3.30
2022-12-01T08:13:42.366Z,3.30
2022-12-01T08:16:13.087Z,3.40
2022-12-01T08:18:41.891Z,3.40
2022-12-01T08:21:15.232Z,3.40
2022-12-01T08:23:43.803Z,3.40
2022-12-01T08:26:19.303Z,3.40
2022-12-01T08:28:47.555Z,3.50
2022-12-01T08:31:32.981Z,3.60
2022-12-01T08:34:00.219Z,3.70
2022-12-01T08:36:27.382Z,3.70
2022-12-01T08:38:56.363Z,3.80
2022-12-01T08:41:24.699Z,3.80
2022-12-01T08:44:00.438Z,3.90
2022-12-01T08:46:34.252Z,4.00
2022-12-01T08:49:03.888Z,4.10
2022-12-01T08:51:31.412Z,4.10
2022-12-01T08:53:59.798Z,4.20
2022-12-01T08:56:35.220Z,4.20
2022-12-01T08:59:02.506Z,4.30
2022-12-01T09:01:29.702Z,4.40
2022-12-01T09:04:10.461Z,4.50
2022-12-01T09:06:42.722Z,4.60
2022-12-01T09:09:18.872Z,4.70
2022-12-01T09:11:47.422Z,4.80
2022-12-01T09:14:18.770Z,4.80
2022-12-01T09:16:49.750Z,4.90
2022-12-01T09:19:24.003Z,5.00
2022-12-01T09:21:52.482Z,5.10
2022-12-01T09:24:19.614Z,5.00
2022-12-01T09:26:46.738Z,5.00
2022-12-01T09:29:16.592Z,5.00
2022-12-01T09:31:43.809Z,4.90
2022-12-01T09:34:19.865Z,4.90
2022-12-01T09:36:48.064Z,4.90
2022-12-01T09:39:21.126Z,4.90
2022-12-01T09:42:07.629Z,4.80
2022-12-01T09:44:51.611Z,4.80
2022-12-01T09:47:22.031Z,4.80
2022-12-01T09:50:07.316Z,4.80
2022-12-01T09:52:47.933Z,4.80
2022-12-01T09:55:23.417Z,4.90
2022-12-01T09:57:57.500Z,4.90
2022-12-01T10:00:31.293Z,5.00
2022-12-01T10:03:48.409Z,5.00
2022-12-01T10:06:37.831Z,5.10
2022-12-01T10:09:22.798Z,5.10
2022-12-01T10:11:55.271Z,5.20
2022-12-01T10:14:22.536Z,5.20
2022-12-01T10:17:18.210Z,5.20
2022-12-01T10:19:50.881Z,5.10
2022-12-01T10:22:57.258Z,5.10
2022-12-01T10:25:31.637Z,5.00
2022-12-01T10:28:36.277Z,5.00
2022-12-01T10:31:51.297Z,5.00
2022-12-01T10:34:23.840Z,5.00
2022-12-01T10:36:51.302Z,5.00
2022-12-01T10:39:35.195Z,5.00
2022-12-01T10:42:14.912Z,5.10
2022-12-01T10:44:43.237Z,5.10
2022-12-01T10:47:23.616Z,5.10
2022-12-01T10:49:51.058Z,5.10
2022-12-01T10:52:38.956Z,5.20
2022-12-01T10:55:29.381Z,5.20
2022-12-01T10:58:03.434Z,5.20
2022-12-01T11:00:59.002Z,5.30
2022-12-01T11:03:33.880Z,5.40
2022-12-01T11:06:05.388Z,5.50
2022-12-01T11:08:40.459Z,5.50
2022-12-01T11:11:30.321Z,5.60
2022-12-01T11:14:01.713Z,5.70
2022-12-01T11:16:44.725Z,5.80
2022-12-01T11:19:23.473Z,6.00
2022-12-01T11:22:26.239Z,6.40
2022-12-01T11:24:53.247Z,6.60
2022-12-01T11:27:23.322Z,6.60
2022-12-01T11:29:55.961Z,6.60
2022-12-01T11:32:30.280Z,6.70
2022-12-01T11:35:09.473Z,6.60
2022-12-01T11:37:50.473Z,6.60
2022-12-01T11:40:36.151Z,6.70
2022-12-01T11:43:06.203Z,6.70
2022-12-01T11:45:40.512Z,6.70
2022-12-01T11:48:15.372Z,6.70
2022-12-01T11:50:59.563Z,6.60
2022-12-01T11:53:37.491Z,6.60
2022-12-01T11:56:37.167Z,6.50
2022-12-01T11:59:21.773Z,6.40
2022-12-01T12:02:46.401Z,6.40
2022-12-01T12:05:22.637Z,6.40
2022-12-01T12:08:15.752Z,6.40
2022-12-01T12:11:17.826Z,6.40
2022-12-01T12:14:18.011Z,6.40
2022-12-01T12:17:18.603Z,6.40
2022-12-01T12:20:11.300Z,6.30
2022-12-01T12:23:13.195Z,6.30
2022-12-01T12:26:24.642Z,6.30
2022-12-01T12:28:51.558Z,6.50
2022-12-01T12:32:03.032Z,6.50
2022-12-01T12:34:59.939Z,6.50
2022-12-01T12:37:38.745Z,6.50
2022-12-01T12:40:20.709Z,6.50
2022-12-01T12:43:19.934Z,6.50
2022-12-01T12:46:16.806Z,6.50
2022-12-01T12:49:26.021Z,6.50
2022-12-01T12:52:12.462Z,6.50
2022-12-01T12:54:50.446Z,6.50
2022-12-01T12:57:44.510Z,6.40
2022-12-01T13:00:20.812Z,6.40
2022-12-01T13:03:10.121Z,6.40
2022-12-01T13:06:04.555Z,6.40
2022-12-01T13:08:48.360Z,6.40
2022-12-01T13:11:29.652Z,6.40
2022-12-01T13:14:15.336Z,6.50
2022-12-01T13:16:48.138Z,6.50
2022-12-01T13:19:33.670Z,6.50
2022-12-01T13:22:02.264Z,6.50
2022-12-01T13:24:31.302Z,6.50
2022-12-01T13:27:11.113Z,6.50
2022-12-01T13:29:53.297Z,6.40
2022-12-01T13:32:30.934Z,6.40
2022-12-01T13:34:59.539Z,6.40
2022-12-01T13:37:35.752Z,6.40
2022-12-01T13:40:28.058Z,6.30
2022-12-01T13:43:10.472Z,6.30
2022-12-01T13:45:40.325Z,6.30
2022-12-01T13:48:37.890Z,6.30
2022-12-01T13:51:05.208Z,6.20
2022-12-01T13:53:37.833Z,6.20
2022-12-01T13:56:16.616Z,6.20
2022-12-01T13:58:53.991Z,6.10
2022-12-01T14:01:21.474Z,6.10
2022-12-01T14:04:12.748Z,6.00
2022-12-01T14:07:10.404Z,6.00
2022-12-01T14:09:41.009Z,6.00
2022-12-01T14:12:11.217Z,6.00
2022-12-01T14:14:44.858Z,5.90
2022-12-01T14:17:34.950Z,5.90
2022-12-01T14:20:22.308Z,5.90
2022-12-01T14:23:24.189Z,5.90
2022-12-01T14:26:20.882Z,5.80
2022-12-01T14:28:59.958Z,5.80
2022-12-01T14:31:33.221Z,5.80
2022-12-01T14:34:06.440Z,5.70
2022-12-01T14:37:06.638Z,5.70
2022-12-01T14:39:38.648Z,5.70
2022-12-01T14:42:11.629Z,5.60
2022-12-01T14:44:55.077Z,5.60
2022-12-01T14:47:42.258Z,5.60
2022-12-01T14:50:23.147Z,5.50
2022-12-01T14:52:58.285Z,5.50
2022-12-01T14:55:41.735Z,5.50
2022-12-01T14:58:23.659Z,5.40
2022-12-01T15:01:12.594Z,5.40
2022-12-01T15:03:51.832Z,5.30
2022-12-01T15:06:27.616Z,5.30
2022-12-01T15:09:35.481Z,5.30
2022-12-01T15:12:09.158Z,5.40
2022-12-01T15:14:49.033Z,5.30
2022-12-01T15:17:34.728Z,5.30
2022-12-01T15:20:01.911Z,5.20
2022-12-01T15:22:34.219Z,5.20
2022-12-01T15:25:14.468Z,5.20
2022-12-01T15:27:43.884Z,5.20
2022-12-01T15:30:18.886Z,5.10
2022-12-01T15:32:46.259Z,5.10
2022-12-01T15:35:22.717Z,5.00
2022-12-01T15:37:51.934Z,5.00
2022-12-01T15:41:06.119Z,5.00
2022-12-01T15:43:30.158Z,4.90
2022-12-01T15:46:11.402Z,4.90
2022-12-01T15:48:38.876Z,4.90
2022-12-01T15:51:12.106Z,4.90
2022-12-01T15:53:54.060Z,4.90
2022-12-01T15:56:38.066Z,4.90
2022-12-01T15:59:24.035Z,4.90
2022-12-01T16:01:51.454Z,4.90
2022-12-01T16:04:35.544Z,4.80
2022-12-01T16:07:10.706Z,4.80
2022-12-01T16:09:54.954Z,4.80
2022-12-01T16:12:33.228Z,4.80
2022-12-01T16:15:00.469Z,4.70
2022-12-01T16:17:40.955Z,4.70
2022-12-01T16:20:31.022Z,4.70
2022-12-01T16:23:15.591Z,4.70
2022-12-01T16:25:47.417Z,4.60
2022-12-01T16:28:37.782Z,4.60
2022-12-01T16:31:10.178Z,4.60
2022-12-01T16:33:40.011Z,4.60
2022-12-01T16:36:07.678Z,4.50
2022-12-01T16:38:34.836Z,4.50
2022-12-01T16:41:14.947Z,4.50
2022-12-01T16:43:59.180Z,4.40
2022-12-01T16:46:31.225Z,4.40
2022-12-01T16:48:58.628Z,4.30
2022-12-01T16:51:35.578Z,4.30
2022-12-01T16:54:13.647Z,4.30
2022-12-01T16:56:41.096Z,4.20
2022-12-01T16:59:08.492Z,4.20
2022-12-01T17:01:37.800Z,4.10
2022-12-01T17:04:07.776Z,4.10
2022-12-01T17:06:36.240Z,4.00
2022-12-01T17:09:03.762Z,4.00
2022-12-01T17:11:31.131Z,4.00
2022-12-01T17:13:58.496Z,3.90
2022-12-01T17:16:26.234Z,3.90
2022-12-01T17:18:56.206Z,3.80
2022-12-01T17:21:23.587Z,3.80
2022-12-01T17:23:51.455Z,3.80
2022-12-01T17:26:20.769Z,3.70
2022-12-01T17:28:51.632Z,3.60
2022-12-01T17:31:19.292Z,3.60
2022-12-01T17:33:47.126Z,3.50
2022-12-01T17:36:15.659Z,3.50
2022-12-01T17:38:46.830Z,3.40
2022-12-01T17:41:21.985Z,3.40
2022-12-01T17:43:49.303Z,3.30
2022-12-01T17:46:18.215Z,3.40
2022-12-01T17:48:47.374Z,3.30
2022-12-01T17:51:20.906Z,3.30
2022-12-01T17:53:50.074Z,3.30
2022-12-01T17:56:17.829Z,3.20
2022-12-01T18:01:19.242Z,3.10
2022-12-01T18:03:48.721Z,3.10
2022-12-01T18:06:17.746Z,3.00
2022-12-01T18:08:45.389Z,3.00
2022-12-01T18:11:16.330Z,3.00
2022-12-01T18:13:50.086Z,2.90
2022-12-01T18:16:26.156Z,2.90
2022-12-01T18:18:55.369Z,2.90
2022-12-01T18:21:24.617Z,2.80
2022-12-01T18:23:56.509Z,2.80
2022-12-01T18:26:26.244Z,2.80
2022-12-01T18:29:00.615Z,2.70
2022-12-01T18:31:30.872Z,2.70
2022-12-01T18:34:03.162Z,2.70
2022-12-01T18:36:34.395Z,2.70
2022-12-01T18:39:04.286Z,2.70
2022-12-01T18:41:34.086Z,2.70
2022-12-01T18:44:01.775Z,2.70
2022-12-01T18:46:30.196Z,2.70
2022-12-01T18:49:03.427Z,2.70
2022-12-01T18:51:39.417Z,2.70
2022-12-01T18:54:11.272Z,2.70
2022-12-01T18:56:39.205Z,2.70
2022-12-01T18:59:10.954Z,2.70
2022-12-01T19:01:43.924Z,2.70
2022-12-01T19:04:13.007Z,2.70
2022-12-01T19:06:43.186Z,2.70
2022-12-01T19:09:14.471Z,2.70
2022-12-01T19:11:43.711Z,2.70
2022-12-01T19:14:18.384Z,2.70
2022-12-01T19:16:47.804Z,2.70
2022-12-01T19:19:16.460Z,2.70
2022-12-01T19:21:45.958Z,2.70
2022-12-01T19:24:15.151Z,2.70
2022-12-01T19:26:44.542Z,2.70
2022-12-01T19:29:13.524Z,2.70
2022-12-01T19:31:41.505Z,2.60
2022-12-01T19:34:10.662Z,2.70
2022-12-01T19:36:41.861Z,2.70
2022-12-01T19:39:11.915Z,2.70
2022-12-01T19:41:40.422Z,2.70
2022-12-01T19:44:10.864Z,2.70
2022-12-01T19:46:40.853Z,2.70
2022-12-01T19:49:10.687Z,2.70
2022-12-01T19:51:40.600Z,2.70
2022-12-01T19:54:20.206Z,2.70
2022-12-01T19:56:49.480Z,2.70
2022-12-01T19:59:17.585Z,2.70
2022-12-01T20:01:45.845Z,2.70
2022-12-01T20:04:15.452Z,2.70
2022-12-01T20:06:43.798Z,2.70
2022-12-01T20:09:11.717Z,2.70
2022-12-01T20:11:39.774Z,2.70
2022-12-01T20:14:11.324Z,2.70
2022-12-01T20:16:38.986Z,2.70
2022-12-01T20:19:07.757Z,2.70
2022-12-01T20:21:42.739Z,2.70
2022-12-01T20:24:20.455Z,2.70
2022-12-01T20:26:57.807Z,2.70
2022-12-01T20:29:29.834Z,2.70
2022-12-01T20:32:02.915Z,2.70
2022-12-01T20:34:36.698Z,2.70
2022-12-01T20:37:05.443Z,2.70
2022-12-01T20:39:35.762Z,2.70
2022-12-01T20:42:04.209Z,2.70
2022-12-01T20:44:32.539Z,2.60
2022-12-01T20:47:01.141Z,2.70
2022-12-01T20:49:29.604Z,2.60
2022-12-01T20:51:58.255Z,2.60
2022-12-01T20:54:28.303Z,2.60
2022-12-01T20:56:59.170Z,2.60
2022-12-01T20:59:27.710Z,2.60
2022-12-01T21:01:55.892Z,2.60
2022-12-01T21:04:23.548Z,2.60
2022-12-01T21:06:54.760Z,2.60
2022-12-01T21:09:22.385Z,2.60
2022-12-01T21:12:09.796Z,2.60
2022-12-01T21:14:37.587Z,2.60
2022-12-01T21:17:13.590Z,2.60
2022-12-01T21:20:27.488Z,2.60
2022-12-01T21:22:58.654Z,2.60
2022-12-01T21:25:26.488Z,2.50
2022-12-01T21:27:57.253Z,2.50
2022-12-01T21:30:26.471Z,2.50
2022-12-01T21:32:54.760Z,2.50
2022-12-01T21:35:24.951Z,2.50
2022-12-01T21:38:00.580Z,2.50
2022-12-01T21:40:28.840Z,2.50
2022-12-01T21:43:01.521Z,2.50
2022-12-01T21:45:34.693Z,2.50
2022-12-01T21:48:17.916Z,2.50
2022-12-01T21:50:50.872Z,2.50
2022-12-01T21:53:21.622Z,2.50
2022-12-01T21:55:49.394Z,2.40
2022-12-01T21:58:30.808Z,2.40
2022-12-01T22:00:59.556Z,2.40
2022-12-01T22:03:39.765Z,2.40
2022-12-01T22:09:02.776Z,2.40
2022-12-01T22:11:31.104Z,2.40
2022-12-01T22:14:17.325Z,2.30
2022-12-01T22:16:55.748Z,2.30
2022-12-01T22:19:37.492Z,2.30
2022-12-01T22:22:26.239Z,2.30
2022-12-01T22:25:07.286Z,2.30
2022-12-01T22:27:43.335Z,2.30
2022-12-01T22:30:10.347Z,2.30
2022-12-01T22:32:44.345Z,2.30
2022-12-01T22:35:28.961Z,2.30
2022-12-01T22:38:05.929Z,2.30
2022-12-01T22:40:48.368Z,2.30
2022-12-01T22:43:15.879Z,2.30
2022-12-01T22:46:17.526Z,2.30
2022-12-01T22:49:10.450Z,2.30
2022-12-01T22:51:40.219Z,2.30
2022-12-01T22:54:10.068Z,2.20
2022-12-01T22:57:24.507Z,2.20
2022-12-01T22:59:52.068Z,2.20
2022-12-01T23:02:25.224Z,2.20
2022-12-01T23:05:00.566Z,2.20
2022-12-01T23:07:36.441Z,2.20
2022-12-01T23:10:39.037Z,2.20
2022-12-01T23:13:24.392Z,2.10
2022-12-01T23:15:55.894Z,2.10
2022-12-01T23:18:32.010Z,2.10
2022-12-01T23:21:02.627Z,2.10
2022-12-01T23:23:36.578Z,2.10
2022-12-01T23:26:08.487Z,2.10
2022-12-01T23:28:38.677Z,2.10
2022-12-01T23:31:06.062Z,2.10
2022-12-01T23:33:35.392Z,2.10
2022-12-01T23:36:27.727Z,2.00
2022-12-01T23:39:04.564Z,2.00
2022-12-01T23:41:39.023Z,2.00
2022-12-01T23:44:45.480Z,2.00
2022-12-01T23:47:22.711Z,2.00
2022-12-01T23:50:00.191Z,2.00
2022-12-01T23:52:35.167Z,2.00
2022-12-01T23:55:16.868Z,1.90
2022-12-01T23:57:44.010Z,1.90
